Time;durP1;ratioP1;P1;durP2;ratioP2;P2;SDS_P1;SDS_P2;PMS_P1;PMS_P2;Temp;Humidity;BMP_temperature;BMP_pressure;BME280_temperature;BME280_humidity;BME280_pressure;Samples;Min_cycle;Max_cycle;Signal;HPM_P1;HPM_P2
2022/10/04 00:01:46;;;;;;;;;;;;;;;14.97;69.85;100355.59;4972741;28;20008;-60
2022/10/04 00:04:17;;;;;;;;;;;;;;;14.70;70.30;100357.53;4966049;28;19926;-61
2022/10/04 00:06:47;;;;;;;;;;;;;;;14.52;71.27;100361.75;4973321;28;19921;-61
2022/10/04 00:09:15;;;;;;;;;;;;;;;14.60;70.51;100360.59;4974802;28;20377;-60
2022/10/04 00:11:46;;;;;;;;;;;;;;;14.16;71.87;100360.44;4973705;28;19920;-60
2022/10/04 00:14:31;;;;;;;;;;;;;;;14.29;71.56;100361.72;4972768;28;19996;-61
2022/10/04 00:16:58;;;;;;;;;;;;;;;14.35;70.82;100356.19;4971891;28;20333;-61
2022/10/04 00:19:37;;;;;;;;;;;;;;;14.37;70.37;100353.50;4973635;28;20504;-62
2022/10/04 00:22:02;;;;;;;;;;;;;;;14.41;70.81;100352.47;5005290;28;20021;-62
2022/10/04 00:24:31;;;;;;;;;;;;;;;14.29;70.95;100348.50;4973557;28;20020;-61
2022/10/04 00:27:35;;;;;;;;;;;;;;;14.34;70.67;100349.19;4973285;28;19922;-62
2022/10/04 00:30:00;;;;;;;;;;;;;;;14.29;70.51;100351.16;4952021;28;19926;-62
2022/10/04 00:32:26;;;;;;;;;;;;;;;14.19;71.09;100350.63;4952460;28;19918;-61
2022/10/04 00:34:52;;;;;;;;;;;;;;;14.11;71.11;100346.53;4962218;28;20436;-61
2022/10/04 00:37:22;;;;;;;;;;;;;;;13.95;71.66;100348.88;4973500;28;20136;-62
2022/10/04 00:39:56;;;;;;;;;;;;;;;13.86;71.78;100350.06;4973914;28;19917;-61
2022/10/04 00:42:31;;;;;;;;;;;;;;;13.97;71.42;100349.69;4968559;28;19922;-63
2022/10/04 00:45:15;;;;;;;;;;;;;;;13.95;71.34;100351.53;4974818;28;20017;-62
2022/10/04 00:47:43;;;;;;;;;;;;;;;14.11;71.64;100349.19;4974465;28;19964;-62
2022/10/04 00:50:26;;;;;;;;;;;;;;;15.01;68.33;100351.91;4975812;28;19976;-63
2022/10/04 00:52:56;;;;;;;;;;;;;;;14.40;68.71;100354.25;4977611;28;20008;-62
2022/10/04 00:55:32;;;;;;;;;;;;;;;14.44;69.47;100349.69;4972225;28;19918;-62
2022/10/04 00:57:59;;;;;;;;;;;;;;;14.26;70.10;100351.25;4976497;28;20374;-60
2022/10/04 01:00:24;;;;;;;;;;;;;;;14.07;70.57;100350.22;4976446;28;19918;-61
2022/10/04 01:02:50;;;;;;;;;;;;;;;14.28;69.96;100341.47;4975865;28;19925;-61
2022/10/04 01:05:18;;;;;;;;;;;;;;;14.17;70.02;100349.81;4977281;28;19925;-60
2022/10/04 01:07:49;;;;;;;;;;;;;;;13.97;70.70;100344.41;4976172;28;19918;-61
2022/10/04 01:10:23;;;;;;;;;;;;;;;14.21;70.10;100350.59;4976616;28;19921;-61
2022/10/04 01:12:49;;;;;;;;;;;;;;;13.99;70.62;100353.13;4976619;28;19921;-62
2022/10/04 01:15:20;;;;;;;;;;;;;;;14.01;71.12;100354.81;4976362;28;20008;-60
2022/10/04 01:18:04;;;;;;;;;;;;;;;13.96;71.48;100356.75;4975514;28;19918;-61
2022/10/04 01:20:35;;;;;;;;;;;;;;;13.99;70.86;100368.97;4972633;28;20020;-61
2022/10/04 01:23:02;;;;;;;;;;;;;;;14.18;70.83;100351.53;4976768;28;19914;-61
2022/10/04 01:25:51;;;;;;;;;;;;;;;14.45;69.71;100347.00;4977198;28;19965;-62
2022/10/04 01:28:16;;;;;;;;;;;;;;;14.58;68.84;100352.72;4965332;28;20004;-60
2022/10/04 01:30:42;;;;;;;;;;;;;;;14.46;69.17;100348.72;4976569;28;20013;-60
2022/10/04 01:33:08;;;;;;;;;;;;;;;14.38;69.25;100348.16;4974760;28;19957;-62
2022/10/04 01:35:36;;;;;;;;;;;;;;;14.45;69.46;100352.31;4976895;28;20010;-62
2022/10/04 01:38:08;;;;;;;;;;;;;;;14.65;68.92;100353.34;4976352;28;20374;-61
2022/10/04 01:40:34;;;;;;;;;;;;;;;14.51;69.18;100356.50;4976447;28;20020;-61
2022/10/04 01:43:11;;;;;;;;;;;;;;;14.59;69.16;100366.78;4976127;28;20013;-62
2022/10/04 01:45:43;;;;;;;;;;;;;;;14.36;69.80;100371.13;4975936;28;19917;-62
2022/10/04 01:48:11;;;;;;;;;;;;;;;14.45;69.79;100359.38;4974467;28;19966;-61
2022/10/04 01:50:40;;;;;;;;;;;;;;;14.29;69.68;100367.00;4972343;28;20370;-61
2022/10/04 01:53:05;;;;;;;;;;;;;;;14.28;69.61;100366.16;4976235;28;20005;-62
2022/10/04 01:55:36;;;;;;;;;;;;;;;14.45;69.47;100362.00;4976331;28;20009;-62
2022/10/04 01:58:07;;;;;;;;;;;;;;;14.32;69.68;100360.72;4975693;28;19922;-62
2022/10/04 02:00:33;;;;;;;;;;;;;;;14.44;69.35;100361.16;4976568;28;19964;-62
2022/10/04 02:03:02;;;;;;;;;;;;;;;14.34;69.57;100361.56;4975258;28;19926;-62
2022/10/04 02:05:30;;;;;;;;;;;;;;;14.24;69.94;100353.09;4975520;28;19925;-61
2022/10/04 02:07:56;;;;;;;;;;;;;;;13.96;70.58;100356.75;4975441;28;19925;-62
2022/10/04 02:10:22;;;;;;;;;;;;;;;14.11;70.37;100351.81;4976405;28;19922;-62
2022/10/04 02:12:49;;;;;;;;;;;;;;;13.81;71.53;100352.03;4976015;28;19918;-62
2022/10/04 02:15:15;;;;;;;;;;;;;;;13.48;72.76;100354.03;4964935;28;20266;-62
2022/10/04 02:17:42;;;;;;;;;;;;;;;13.75;71.58;100347.81;4975851;28;19968;-60
2022/10/04 02:20:10;;;;;;;;;;;;;;;13.51;72.58;100357.44;4975826;28;19972;-62
2022/10/04 02:22:36;;;;;;;;;;;;;;;13.67;72.17;100341.06;4975088;28;20001;-62
2022/10/04 02:25:01;;;;;;;;;;;;;;;13.53;72.94;100360.91;4975689;28;19918;-63
2022/10/04 02:27:28;;;;;;;;;;;;;;;13.58;72.49;100362.53;4976040;28;20005;-61
2022/10/04 02:29:59;;;;;;;;;;;;;;;13.54;72.40;100359.97;4973717;28;19924;-61
2022/10/04 02:35:08;;;;;;;;;;;;;;;13.47;72.63;100363.72;4973607;28;19929;-61
2022/10/04 02:37:36;;;;;;;;;;;;;;;13.72;71.57;100355.84;4975649;28;19926;-63
2022/10/04 02:40:09;;;;;;;;;;;;;;;13.60;72.13;100358.88;4975897;28;19932;-62
2022/10/04 02:42:34;;;;;;;;;;;;;;;13.49;72.67;100368.97;4975555;28;20376;-63
2022/10/04 02:45:15;;;;;;;;;;;;;;;13.50;72.69;100365.41;4975111;28;20052;-61
2022/10/04 02:47:48;;;;;;;;;;;;;;;13.28;73.43;100370.53;4974801;28;19922;-60
2022/10/04 02:50:22;;;;;;;;;;;;;;;13.47;73.11;100366.38;4974428;28;19918;-61
2022/10/04 02:52:52;;;;;;;;;;;;;;;13.45;72.58;100370.00;4974609;28;19919;-62
2022/10/04 02:55:17;;;;;;;;;;;;;;;13.49;72.47;100363.69;4974384;28;19922;-62
2022/10/04 02:57:43;;;;;;;;;;;;;;;13.44;72.64;100371.75;4975434;28;19925;-62
2022/10/04 03:00:08;;;;;;;;;;;;;;;13.37;72.86;100367.63;4975077;28;19973;-62
2022/10/04 03:02:33;;;;;;;;;;;;;;;13.35;72.99;100364.16;4975213;28;19969;-61
2022/10/04 03:05:02;;;;;;;;;;;;;;;13.23;73.29;100362.78;4974885;28;19932;-61
2022/10/04 03:07:30;;;;;;;;;;;;;;;13.15;73.76;100366.53;4973728;28;19918;-62
2022/10/04 03:09:55;;;;;;;;;;;;;;;14.00;71.98;100368.94;4974694;28;19925;-61
2022/10/04 03:12:21;;;;;;;;;;;;;;;13.48;72.24;100368.09;4975061;28;19926;-61
2022/10/04 03:14:46;;;;;;;;;;;;;;;13.41;72.20;100371.00;4973415;28;19929;-62
2022/10/04 03:17:13;;;;;;;;;;;;;;;13.45;71.61;100373.50;4969260;28;19922;-61
2022/10/04 03:19:39;;;;;;;;;;;;;;;13.45;71.82;100377.91;4975723;28;20009;-61
2022/10/04 03:22:08;;;;;;;;;;;;;;;13.35;72.17;100376.47;4973950;28;20013;-61
2022/10/04 03:24:36;;;;;;;;;;;;;;;13.63;70.48;100373.78;4974831;28;20008;-62
2022/10/04 03:27:04;;;;;;;;;;;;;;;13.44;71.15;100382.31;4974429;28;19918;-61
2022/10/04 03:29:31;;;;;;;;;;;;;;;13.30;71.89;100384.56;4974237;28;19929;-62
2022/10/04 03:31:57;;;;;;;;;;;;;;;13.40;72.04;100379.81;4974246;28;19940;-61
2022/10/04 03:34:22;;;;;;;;;;;;;;;13.58;70.82;100378.34;4974052;28;19922;-61
2022/10/04 03:36:48;;;;;;;;;;;;;;;13.57;70.71;100376.66;4974709;28;20381;-63
2022/10/04 03:39:19;;;;;;;;;;;;;;;13.69;70.55;100392.91;4973717;28;19926;-62
2022/10/04 03:41:45;;;;;;;;;;;;;;;13.37;71.77;100386.09;4973986;28;19918;-60
2022/10/04 03:44:14;;;;;;;;;;;;;;;13.37;72.07;100391.38;4974020;28;20017;-60
2022/10/04 03:46:41;;;;;;;;;;;;;;;13.36;72.05;100401.94;4971247;28;19922;-62
2022/10/04 03:49:07;;;;;;;;;;;;;;;13.38;72.20;100398.34;4974251;28;20017;-62
2022/10/04 03:51:33;;;;;;;;;;;;;;;13.49;71.77;100408.56;4984882;28;20008;-61
2022/10/04 03:54:00;;;;;;;;;;;;;;;13.45;72.19;100409.59;4974757;28;20358;-62
2022/10/04 03:56:28;;;;;;;;;;;;;;;13.57;71.51;100409.19;4974090;28;20024;-61
2022/10/04 03:58:54;;;;;;;;;;;;;;;13.39;72.49;100407.13;4973646;28;19924;-60
2022/10/04 04:01:19;;;;;;;;;;;;;;;13.41;73.38;100411.47;4974577;28;19926;-62
2022/10/04 04:03:49;;;;;;;;;;;;;;;13.74;71.78;100421.81;4974223;28;19917;-62
2022/10/04 04:06:16;;;;;;;;;;;;;;;13.92;71.45;100410.59;4973104;28;20333;-60
2022/10/04 04:08:44;;;;;;;;;;;;;;;13.65;72.20;100411.56;4974359;28;19941;-61
2022/10/04 04:11:17;;;;;;;;;;;;;;;13.65;72.71;100411.56;4965984;28;19921;-61
2022/10/04 04:13:49;;;;;;;;;;;;;;;13.63;72.31;100413.38;4972163;28;19918;-62
2022/10/04 04:16:15;;;;;;;;;;;;;;;13.63;72.24;100410.75;4976439;28;19918;-62
2022/10/04 04:18:42;;;;;;;;;;;;;;;13.58;72.67;100418.81;4982180;28;19968;-61
2022/10/04 04:21:07;;;;;;;;;;;;;;;13.37;74.04;100420.41;4984500;28;19918;-62
2022/10/04 04:23:35;;;;;;;;;;;;;;;13.50;73.16;100421.72;4983191;28;19941;-62
2022/10/04 04:26:13;;;;;;;;;;;;;;;13.93;71.59;100420.25;4978723;28;20346;-62
2022/10/04 04:28:41;;;;;;;;;;;;;;;13.90;71.76;100427.44;4978085;28;20396;-62
2022/10/04 04:31:17;;;;;;;;;;;;;;;13.75;72.64;100428.81;5000150;28;19918;-61
2022/10/04 04:33:50;;;;;;;;;;;;;;;13.99;71.16;100438.53;4977974;28;19924;-61
2022/10/04 04:36:18;;;;;;;;;;;;;;;13.78;71.93;100434.00;4976375;28;19918;-61
2022/10/04 04:41:30;;;;;;;;;;;;;;;14.15;70.25;100428.28;4975493;28;20384;-60
2022/10/04 04:43:55;;;;;;;;;;;;;;;14.00;71.07;100427.06;4990026;28;19977;-62
2022/10/04 04:46:21;;;;;;;;;;;;;;;13.92;71.35;100429.06;4977406;28;20056;-62
2022/10/04 04:48:48;;;;;;;;;;;;;;;13.86;71.80;100441.66;4975004;28;19918;-61
2022/10/04 04:51:19;;;;;;;;;;;;;;;13.88;71.63;100438.03;4975076;28;20008;-60
2022/10/04 04:53:46;;;;;;;;;;;;;;;13.65;72.83;100436.19;4976025;28;19965;-61
2022/10/04 04:56:18;;;;;;;;;;;;;;;13.76;72.86;100441.09;4974571;28;19918;-61
2022/10/04 04:58:45;;;;;;;;;;;;;;;13.68;72.98;100448.41;4977911;28;19914;-60
2022/10/04 05:01:16;;;;;;;;;;;;;;;13.71;72.15;100450.94;4976426;28;20020;-60
2022/10/04 05:03:42;;;;;;;;;;;;;;;13.81;72.44;100444.44;4978228;28;20004;-62
2022/10/04 05:06:36;;;;;;;;;;;;;;;14.02;71.42;100438.41;4976422;28;20029;-62
2022/10/04 05:09:02;;;;;;;;;;;;;;;14.06;70.95;100441.81;4966891;28;20062;-62
2022/10/04 05:11:30;;;;;;;;;;;;;;;13.97;71.47;100447.44;4978096;28;20009;-62
2022/10/04 05:13:58;;;;;;;;;;;;;;;14.12;70.94;100448.66;4978480;28;19918;-61
2022/10/04 05:16:36;;;;;;;;;;;;;;;13.84;72.25;100449.59;4975818;28;19918;-60
2022/10/04 05:19:04;;;;;;;;;;;;;;;13.87;72.12;100438.94;4976606;28;19933;-61
2022/10/04 05:21:30;;;;;;;;;;;;;;;13.79;72.60;100454.19;4976563;28;20064;-62
2022/10/04 05:23:57;;;;;;;;;;;;;;;13.95;72.01;100458.03;4974948;28;19918;-63
2022/10/04 05:26:26;;;;;;;;;;;;;;;14.28;70.73;100449.84;4976028;28;19965;-61
2022/10/04 05:28:52;;;;;;;;;;;;;;;14.19;70.69;100461.59;4976679;28;19918;-62
2022/10/04 05:31:30;;;;;;;;;;;;;;;14.77;68.72;100463.97;4983046;28;19914;-63
2022/10/04 05:33:58;;;;;;;;;;;;;;;14.48;68.96;100457.94;4996371;28;20062;-62
2022/10/04 05:36:29;;;;;;;;;;;;;;;14.37;69.31;100468.03;4983289;28;20385;-61
2022/10/04 05:39:01;;;;;;;;;;;;;;;14.61;68.89;100468.09;4975935;28;20284;-61
2022/10/04 05:41:54;;;;;;;;;;;;;;;14.54;69.26;100468.31;4976976;28;19926;-60
2022/10/04 05:44:24;;;;;;;;;;;;;;;14.16;70.58;100474.94;4969361;28;19930;-62
2022/10/04 05:46:50;;;;;;;;;;;;;;;14.41;69.47;100471.44;4976073;28;20020;-62
2022/10/04 05:49:18;;;;;;;;;;;;;;;14.28;70.15;100484.19;4976466;28;20005;-62
2022/10/04 05:51:47;;;;;;;;;;;;;;;14.34;69.84;100476.06;4976469;28;19941;-59
2022/10/04 05:54:17;;;;;;;;;;;;;;;14.32;70.19;100482.31;4975834;28;19918;-61
2022/10/04 05:56:52;;;;;;;;;;;;;;;14.61;69.09;100481.31;4976312;28;19968;-61
2022/10/04 05:59:20;;;;;;;;;;;;;;;14.56;68.63;100481.47;4976406;28;19961;-61
2022/10/04 06:01:50;;;;;;;;;;;;;;;14.76;68.46;100483.38;4975856;28;19918;-61
2022/10/04 06:04:21;;;;;;;;;;;;;;;14.70;68.42;100491.53;4976416;28;20426;-62
2022/10/04 06:06:48;;;;;;;;;;;;;;;14.72;68.58;100487.03;4977039;28;19917;-63
2022/10/04 06:09:32;;;;;;;;;;;;;;;14.93;68.02;100494.19;4974652;28;20027;-62
2022/10/04 06:12:13;;;;;;;;;;;;;;;15.16;67.67;100493.31;4975738;28;19925;-61
2022/10/04 06:14:49;;;;;;;;;;;;;;;15.07;67.73;100500.75;4981469;28;19913;-62
2022/10/04 06:17:31;;;;;;;;;;;;;;;15.28;67.07;100505.22;4988447;28;19999;-61
2022/10/04 06:20:02;;;;;;;;;;;;;;;15.44;66.63;100509.00;4982874;28;19944;-62
2022/10/04 06:22:27;;;;;;;;;;;;;;;15.49;66.34;100507.00;4989402;28;20030;-63
2022/10/04 06:24:59;;;;;;;;;;;;;;;15.58;66.04;100513.72;4976051;28;20061;-61
2022/10/04 06:27:28;;;;;;;;;;;;;;;15.61;65.74;100507.44;4977169;28;19918;-62
2022/10/04 06:29:57;;;;;;;;;;;;;;;15.53;66.02;100516.56;4976355;28;19954;-61
2022/10/04 06:32:41;;;;;;;;;;;;;;;15.42;66.07;100521.41;4974615;28;19925;-63
2022/10/04 06:35:06;;;;;;;;;;;;;;;15.58;66.09;100524.31;4975397;28;19922;-63
2022/10/04 06:37:32;;;;;;;;;;;;;;;15.84;65.68;100536.56;4976088;28;20259;-63
2022/10/04 06:40:00;;;;;;;;;;;;;;;15.52;66.07;100533.38;4970437;28;20290;-61
2022/10/04 06:42:38;;;;;;;;;;;;;;;15.74;65.63;100537.84;4972818;28;19922;-62
2022/10/04 06:45:16;;;;;;;;;;;;;;;15.59;65.76;100539.28;4975234;28;19922;-62
2022/10/04 06:47:46;;;;;;;;;;;;;;;15.76;65.46;100534.22;4970637;28;19925;-62
2022/10/04 06:50:23;;;;;;;;;;;;;;;15.86;65.41;100534.69;4974986;28;19926;-63
2022/10/04 06:52:55;;;;;;;;;;;;;;;15.98;65.00;100536.84;4975478;28;19984;-61
2022/10/04 06:55:23;;;;;;;;;;;;;;;16.27;64.25;100534.75;4974181;28;20302;-62
2022/10/04 06:58:07;;;;;;;;;;;;;;;16.53;63.51;100536.28;4975118;28;19993;-62
2022/10/04 07:00:40;;;;;;;;;;;;;;;16.70;62.66;100547.00;4969091;28;19924;-62
2022/10/04 07:03:14;;;;;;;;;;;;;;;16.73;62.55;100548.69;4974883;28;20279;-63
2022/10/04 07:06:00;;;;;;;;;;;;;;;16.93;61.87;100542.50;4975107;28;19996;-62
2022/10/04 07:08:32;;;;;;;;;;;;;;;16.74;62.60;100555.72;4974514;28;19918;-63
2022/10/04 07:11:04;;;;;;;;;;;;;;;16.84;62.10;100558.84;4974349;28;20357;-61
2022/10/04 07:13:33;;;;;;;;;;;;;;;17.08;61.83;100559.53;4974673;28;20370;-62
2022/10/04 07:15:59;;;;;;;;;;;;;;;16.88;62.06;100563.94;4974560;28;19918;-62
2022/10/04 07:18:27;;;;;;;;;;;;;;;16.65;62.33;100562.25;4975011;28;20393;-62
2022/10/04 07:21:11;;;;;;;;;;;;;;;16.86;62.42;100563.13;4974834;28;19961;-62
2022/10/04 07:23:49;;;;;;;;;;;;;;;17.28;60.73;100572.75;4974649;28;20042;-62
2022/10/04 07:26:36;;;;;;;;;;;;;;;17.33;60.50;100567.22;4974078;28;20005;-61
2022/10/04 07:29:20;;;;;;;;;;;;;;;17.39;60.43;100567.75;4973549;28;19918;-63
2022/10/04 07:32:02;;;;;;;;;;;;;;;17.57;59.73;100573.16;4970763;28;19954;-62
2022/10/04 07:34:29;;;;;;;;;;;;;;;17.30;59.78;100583.28;4974146;28;19925;-63
2022/10/04 07:36:57;;;;;;;;;;;;;;;17.17;60.06;100583.84;4974236;28;20294;-60
2022/10/04 07:39:41;;;;;;;;;;;;;;;17.47;59.72;100584.25;4973282;28;19918;-61
2022/10/04 07:42:19;;;;;;;;;;;;;;;17.59;59.17;100587.22;4973522;28;20012;-62
2022/10/04 07:44:52;;;;;;;;;;;;;;;17.40;59.98;100595.22;4974163;28;19922;-60
2022/10/04 07:47:19;;;;;;;;;;;;;;;17.54;59.27;100587.44;4973796;28;19918;-62
2022/10/04 07:49:45;;;;;;;;;;;;;;;17.38;59.77;100589.09;4974423;28;19925;-62
2022/10/04 07:52:17;;;;;;;;;;;;;;;17.53;59.86;100596.34;4973760;28;19922;-62
2022/10/04 07:54:55;;;;;;;;;;;;;;;17.84;59.28;100593.13;4974475;28;19925;-63
2022/10/04 07:57:26;;;;;;;;;;;;;;;17.62;59.65;100606.53;4974307;28;19922;-62
2022/10/04 07:59:55;;;;;;;;;;;;;;;17.17;60.20;100607.75;4973601;28;19950;-61
2022/10/04 08:02:29;;;;;;;;;;;;;;;17.54;59.16;100607.84;4974496;28;19929;-62
2022/10/04 08:05:12;;;;;;;;;;;;;;;17.83;58.86;100615.31;4973619;28;20061;-62
2022/10/04 08:07:37;;;;;;;;;;;;;;;17.54;59.14;100615.81;4974118;28;19918;-62
2022/10/04 08:10:24;;;;;;;;;;;;;;;17.82;58.88;100618.06;4973789;28;20053;-63
2022/10/04 08:12:59;;;;;;;;;;;;;;;17.81;58.26;100619.00;4970787;28;20081;-63
2022/10/04 08:15:25;;;;;;;;;;;;;;;17.80;57.60;100615.47;4973217;28;19926;-63
2022/10/04 08:18:04;;;;;;;;;;;;;;;18.10;58.01;100612.25;4974154;28;20004;-63
2022/10/04 08:20:58;;;;;;;;;;;;;;;17.98;56.93;100619.91;4973854;28;19972;-62
2022/10/04 08:23:31;;;;;;;;;;;;;;;18.21;56.69;100632.06;4968699;28;19918;-63
2022/10/04 08:26:08;;;;;;;;;;;;;;;18.08;56.05;100622.13;4973824;28;19922;-62
2022/10/04 08:31:43;;;;;;;;;;;;;;;18.01;56.07;100623.34;4974083;28;19972;-61
2022/10/04 08:34:09;;;;;;;;;;;;;;;17.56;55.25;100637.88;4973601;28;19925;-63
2022/10/04 08:36:34;;;;;;;;;;;;;;;18.32;55.75;100631.56;4974024;28;19922;-64
2022/10/04 08:38:59;;;;;;;;;;;;;;;18.18;56.09;100623.38;4973623;28;19922;-63
2022/10/04 08:41:34;;;;;;;;;;;;;;;18.20;55.66;100637.47;4973834;28;19925;-62
2022/10/04 08:44:04;;;;;;;;;;;;;;;18.27;55.54;100636.22;4973097;28;19922;-62
2022/10/04 08:46:29;;;;;;;;;;;;;;;18.29;54.91;100628.19;4973913;28;19960;-62
2022/10/04 08:49:06;;;;;;;;;;;;;;;17.75;56.58;100652.03;4973821;28;19961;-61
2022/10/04 08:52:05;;;;;;;;;;;;;;;17.83;56.37;100652.53;4973927;28;19918;-63
2022/10/04 08:54:39;;;;;;;;;;;;;;;17.47;56.83;100663.03;4973949;28;19944;-63
2022/10/04 08:57:11;;;;;;;;;;;;;;;17.38;57.31;100664.31;4972713;28;19918;-59
2022/10/04 08:59:56;;;;;;;;;;;;;;;17.68;56.03;100679.81;4972726;28;19925;-61
2022/10/04 09:02:42;;;;;;;;;;;;;;;18.16;55.17;100666.03;4971914;28;20384;-63
2022/10/04 09:05:22;;;;;;;;;;;;;;;18.00;55.14;100674.81;4974285;28;19941;-62
2022/10/04 09:08:09;;;;;;;;;;;;;;;18.55;54.55;100666.75;4973718;28;19918;-61
2022/10/04 09:11:00;;;;;;;;;;;;;;;18.80;53.12;100667.28;4977621;28;19914;-63
2022/10/04 09:13:37;;;;;;;;;;;;;;;18.85;52.84;100691.88;4969269;28;19925;-62
2022/10/04 09:16:10;;;;;;;;;;;;;;;18.55;54.12;100678.28;4978034;28;19914;-63
2022/10/04 09:18:44;;;;;;;;;;;;;;;18.61;53.46;100677.13;4977686;28;20370;-62
2022/10/04 09:21:25;;;;;;;;;;;;;;;17.80;54.83;100689.91;4979245;28;20362;-63
2022/10/04 09:23:56;;;;;;;;;;;;;;;18.17;54.35;100678.38;4976359;28;20386;-63
2022/10/04 09:26:42;;;;;;;;;;;;;;;17.75;54.45;100689.22;4977621;28;19941;-63
2022/10/04 09:29:14;;;;;;;;;;;;;;;17.79;54.19;100688.16;4976287;28;20017;-63
2022/10/04 09:31:39;;;;;;;;;;;;;;;18.22;53.94;100692.28;4976515;28;19914;-61
2022/10/04 09:34:21;;;;;;;;;;;;;;;18.16;53.37;100697.06;4975056;28;19925;-62
2022/10/04 09:36:51;;;;;;;;;;;;;;;18.70;52.17;100684.66;4976217;28;20084;-62
2022/10/04 09:39:31;;;;;;;;;;;;;;;18.27;52.30;100694.72;4976422;28;19914;-61
2022/10/04 09:42:08;;;;;;;;;;;;;;;18.59;51.39;100701.16;4976408;28;19992;-63
2022/10/04 09:44:44;;;;;;;;;;;;;;;18.56;50.89;100697.78;4976712;28;19922;-63
2022/10/04 09:47:13;;;;;;;;;;;;;;;18.00;50.58;100704.06;4975576;28;19937;-62
2022/10/04 09:49:50;;;;;;;;;;;;;;;18.49;49.86;100693.69;4976811;28;19917;-62
2022/10/04 09:52:15;;;;;;;;;;;;;;;18.77;49.63;100714.50;4977439;28;19918;-62
2022/10/04 09:54:48;;;;;;;;;;;;;;;18.72;50.48;100704.09;4977193;28;19968;-62
2022/10/04 09:57:32;;;;;;;;;;;;;;;18.92;49.39;100709.25;4975566;28;19933;-62
2022/10/04 10:00:04;;;;;;;;;;;;;;;18.63;48.83;100726.69;4975337;28;19960;-64
2022/10/04 10:02:37;;;;;;;;;;;;;;;18.66;47.77;100712.34;4976205;28;19924;-63
2022/10/04 10:05:21;;;;;;;;;;;;;;;18.82;47.48;100718.63;4976219;28;19918;-62
2022/10/04 10:08:09;;;;;;;;;;;;;;;18.91;45.40;100733.28;4976073;28;19925;-63
2022/10/04 10:13:39;;;;;;;;;;;;;;;19.50;46.28;100721.34;4975884;28;20376;-62
2022/10/04 10:16:24;;;;;;;;;;;;;;;19.67;46.25;100731.16;4975171;28;20017;-63
2022/10/04 10:18:49;;;;;;;;;;;;;;;19.53;46.01;100730.97;4975259;28;19953;-61
2022/10/04 10:21:14;;;;;;;;;;;;;;;19.20;47.27;100734.47;4975677;28;20000;-61
2022/10/04 10:23:44;;;;;;;;;;;;;;;19.26;45.71;100747.47;4975725;28;20005;-62
2022/10/04 10:26:22;;;;;;;;;;;;;;;18.66;45.72;100766.41;4975364;28;19969;-63
2022/10/04 10:28:54;;;;;;;;;;;;;;;18.93;46.04;100739.41;4975286;28;20008;-62
2022/10/04 10:31:19;;;;;;;;;;;;;;;18.92;46.22;100757.19;4975316;28;20409;-63
2022/10/04 10:34:01;;;;;;;;;;;;;;;18.89;46.26;100757.34;4975816;28;20057;-61
2022/10/04 10:36:26;;;;;;;;;;;;;;;19.02;46.35;100751.38;4968766;28;19918;-62
2022/10/04 10:39:10;;;;;;;;;;;;;;;19.22;46.61;100753.03;4975294;28;19922;-62
2022/10/04 10:41:46;;;;;;;;;;;;;;;19.19;47.12;100757.59;4970877;28;19949;-62
2022/10/04 10:44:17;;;;;;;;;;;;;;;18.93;47.61;100747.41;4974946;28;19938;-63
2022/10/04 10:46:45;;;;;;;;;;;;;;;18.48;47.24;100754.03;4975611;28;19918;-62
2022/10/04 10:49:13;;;;;;;;;;;;;;;18.41;47.90;100766.75;4975048;28;19922;-62
2022/10/04 10:51:48;;;;;;;;;;;;;;;18.15;48.19;100757.38;4974604;28;19980;-64
2022/10/04 10:54:17;;;;;;;;;;;;;;;17.94;47.54;100756.56;4967101;28;20356;-63
2022/10/04 10:56:51;;;;;;;;;;;;;;;18.20;47.06;100751.84;4978251;28;19918;-62
2022/10/04 10:59:19;;;;;;;;;;;;;;;18.12;47.27;100754.00;4970754;28;19918;-63
2022/10/04 11:01:46;;;;;;;;;;;;;;;18.11;47.12;100757.56;4969708;28;20453;-63
2022/10/04 11:04:13;;;;;;;;;;;;;;;18.39;45.66;100758.00;4971209;28;20440;-63
2022/10/04 11:06:57;;;;;;;;;;;;;;;18.35;45.71;100775.06;4971456;28;19918;-61
2022/10/04 11:09:40;;;;;;;;;;;;;;;18.46;44.96;100775.38;4969819;28;20402;-62
2022/10/04 11:12:08;;;;;;;;;;;;;;;18.38;45.18;100772.22;4969848;28;19918;-62
2022/10/04 11:14:34;;;;;;;;;;;;;;;18.61;45.24;100767.59;4971074;28;19922;-63
2022/10/04 11:17:22;;;;;;;;;;;;;;;18.34;45.12;100786.59;4970507;28;19918;-62
2022/10/04 11:19:53;;;;;;;;;;;;;;;19.04;45.38;100776.16;4967738;28;19922;-63
2022/10/04 11:22:41;;;;;;;;;;;;;;;18.91;45.56;100787.41;4970213;28;19918;-61
2022/10/04 11:25:06;;;;;;;;;;;;;;;18.71;44.12;100784.84;4971328;28;20370;-63
2022/10/04 11:27:34;;;;;;;;;;;;;;;18.69;44.14;100773.41;4969688;28;19918;-62
2022/10/04 11:30:15;;;;;;;;;;;;;;;18.60;44.35;100782.69;4970792;28;19918;-64
2022/10/04 11:32:40;;;;;;;;;;;;;;;18.65;44.39;100787.78;4965840;28;19921;-63
2022/10/04 11:35:06;;;;;;;;;;;;;;;19.12;44.23;100784.63;4970998;28;20016;-63
2022/10/04 11:37:49;;;;;;;;;;;;;;;19.49;43.39;100785.38;4971114;28;19936;-62
2022/10/04 11:40:41;;;;;;;;;;;;;;;20.03;44.21;100780.72;4973864;28;19918;-61
2022/10/04 11:43:10;;;;;;;;;;;;;;;20.05;43.73;100782.38;4974835;28;20005;-60
2022/10/04 11:46:00;;;;;;;;;;;;;;;19.99;43.39;100781.84;4974798;28;20016;-64
2022/10/04 11:48:40;;;;;;;;;;;;;;;20.18;42.91;100769.22;4975400;28;19968;-62
2022/10/04 11:51:34;;;;;;;;;;;;;;;20.03;41.98;100778.06;4974841;28;19930;-62
2022/10/04 11:54:20;;;;;;;;;;;;;;;19.47;42.65;100793.47;4955188;28;20301;-63
2022/10/04 11:56:55;;;;;;;;;;;;;;;19.23;44.48;100787.59;4975040;28;19914;-62
2022/10/04 11:59:36;;;;;;;;;;;;;;;18.94;44.54;100778.41;4974945;28;19921;-64
2022/10/04 12:02:27;;;;;;;;;;;;;;;18.97;43.93;100782.72;4975744;28;19925;-63
2022/10/04 12:05:04;;;;;;;;;;;;;;;18.83;43.81;100786.94;4975021;28;19914;-64
2022/10/04 12:07:33;;;;;;;;;;;;;;;18.75;43.43;100786.47;4974280;28;19914;-61
2022/10/04 12:10:09;;;;;;;;;;;;;;;18.82;43.31;100787.84;4974681;28;19936;-63
2022/10/04 12:12:57;;;;;;;;;;;;;;;19.00;43.44;100787.91;4975180;28;19914;-63
2022/10/04 12:15:41;;;;;;;;;;;;;;;18.90;42.39;100780.34;4966959;28;19914;-62
2022/10/04 12:18:10;;;;;;;;;;;;;;;18.70;42.16;100784.00;4974674;28;19937;-64
2022/10/04 12:20:55;;;;;;;;;;;;;;;18.88;42.64;100776.06;4974677;28;19922;-62
2022/10/04 12:23:39;;;;;;;;;;;;;;;18.92;41.93;100793.59;4974744;28;19921;-62
2022/10/04 12:26:30;;;;;;;;;;;;;;;18.61;42.25;100787.09;4973832;28;19914;-61
2022/10/04 12:29:16;;;;;;;;;;;;;;;18.70;42.46;100799.09;4972376;28;19921;-63
2022/10/04 12:31:41;;;;;;;;;;;;;;;18.60;42.70;100803.13;4966487;28;19922;-62
2022/10/04 12:34:20;;;;;;;;;;;;;;;18.74;42.74;100792.69;4967830;28;19992;-63
2022/10/04 12:37:03;;;;;;;;;;;;;;;18.63;42.31;100808.28;4974768;28;19917;-63
2022/10/04 12:39:37;;;;;;;;;;;;;;;18.67;41.33;100799.22;4976596;28;19921;-62
2022/10/04 12:42:18;;;;;;;;;;;;;;;18.88;41.77;100787.56;5009704;28;20365;-63
2022/10/04 12:44:46;;;;;;;;;;;;;;;19.00;41.48;100812.72;4978420;28;19924;-62
2022/10/04 12:47:24;;;;;;;;;;;;;;;18.97;41.45;100806.69;4978071;28;20271;-62
2022/10/04 12:50:08;;;;;;;;;;;;;;;19.20;41.54;100801.94;4978441;28;19914;-63
2022/10/04 12:52:44;;;;;;;;;;;;;;;18.64;42.05;100802.91;4976367;28;20386;-63
2022/10/04 12:55:12;;;;;;;;;;;;;;;18.72;42.61;100807.91;4971654;28;19917;-62
2022/10/04 12:57:41;;;;;;;;;;;;;;;18.85;42.85;100813.47;4977826;28;19968;-63
2022/10/04 13:00:20;;;;;;;;;;;;;;;19.12;42.44;100813.91;4983528;28;19964;-62
2022/10/04 13:02:57;;;;;;;;;;;;;;;19.02;43.29;100812.63;4975300;28;20020;-63
2022/10/04 13:05:41;;;;;;;;;;;;;;;18.84;42.96;100825.06;4977412;28;19921;-63
2022/10/04 13:08:09;;;;;;;;;;;;;;;19.01;43.42;100822.44;4978972;28;19921;-62
2022/10/04 13:10:43;;;;;;;;;;;;;;;18.92;43.38;100817.56;4978120;28;19918;-64
2022/10/04 13:13:17;;;;;;;;;;;;;;;18.95;44.01;100820.94;4977853;28;19914;-62
2022/10/04 13:15:48;;;;;;;;;;;;;;;19.38;43.33;100824.09;4962134;28;19940;-63